Time;durP1;ratioP1;P1;durP2;ratioP2;P2;SDS_P1;SDS_P2;PMS_P1;PMS_P2;Temp;Humidity;BMP_temperature;BMP_pressure;BME280_temperature;BME280_humidity;BME280_pressure;Samples;Min_cycle;Max_cycle;Signal;HPM_P1;HPM_P2
2022/03/09 00:02:17;;;;;;;;;;;;;;;;;;5106733;27;19989;-73
2022/03/09 00:04:43;;;;;;;;;;;;;;;;;;5091551;28;19951;-73
2022/03/09 00:07:09;;;;;;;;;;;;;;;;;;5088338;28;19920;-73
2022/03/09 00:09:36;;;;;;;;;;;;;;;;;;5106845;28;19947;-73
2022/03/09 00:12:03;;;;;;;;;;;;;;;;;;5107135;27;19954;-73
2022/03/09 00:14:29;;;;;;;;;;;;;;;;;;5106289;28;19978;-73
2022/03/09 00:16:55;;;;;;;;;;;;;;;;;;5106348;28;19959;-72
2022/03/09 00:19:21;;;;;;;;;;;;;;;;;;5089084;28;20363;-72
2022/03/09 00:21:47;;;;;;;;;;;;;;;;;;5104130;27;19982;-72
2022/03/09 00:24:14;;;;;;;;;;;;;;;;;;5099382;27;19977;-72
2022/03/09 00:26:41;;;;;;;;;;;;;;;;;;5104192;28;19971;-72
2022/03/09 00:29:07;;;;;;;;;;;;;;;;;;5105529;27;19951;-73
2022/03/09 00:31:33;;;;;;;;;;;;;;;;;;5101702;28;19923;-72
2022/03/09 00:33:59;;;;;;;;;;;;;;;;;;5111428;27;19958;-73
2022/03/09 00:36:25;;;;;;;;;;;;;;;;;;5089536;28;19951;-73
2022/03/09 00:38:52;;;;;;;;;;;;;;;;;;5107453;28;19971;-72
2022/03/09 00:41:18;;;;;;;;;;;;;;;;;;5106827;28;19959;-72
2022/03/09 00:43:44;;;;;;;;;;;;;;;;;;5106982;28;20363;-73
2022/03/09 00:46:10;;;;;;;;;;;;;;;;;;5105890;27;19958;-73
2022/03/09 00:48:38;;;;;;;;;;;;;;;;;;5105708;28;19939;-73
2022/03/09 00:51:04;;;;;;;;;;;;;;;;;;5102634;28;19955;-73
2022/03/09 00:53:30;;;;;;;;;;;;;;;;;;5107688;28;19951;-73
2022/03/09 00:55:56;;;;;;;;;;;;;;;;;;5105606;28;19951;-80
2022/03/09 00:58:22;;;;;;;;;;;;;;;;;;5102891;28;19966;-72
2022/03/09 01:00:49;;;;;;;;;;;;;;;;;;5089835;28;19962;-72
2022/03/09 01:03:15;;;;;;;;;;;;;;;;;;5103547;28;20272;-72
2022/03/09 01:05:41;;;;;;;;;;;;;;;;;;5110789;27;20072;-73
2022/03/09 01:08:07;;;;;;;;;;;;;;;;;;5109258;28;19947;-73
2022/03/09 01:10:33;;;;;;;;;;;;;;;;;;5109467;27;19962;-72
2022/03/09 01:13:00;;;;;;;;;;;;;;;;;;5090873;28;19997;-72
2022/03/09 01:15:26;;;;;;;;;;;;;;;;;;5109584;27;19963;-73
2022/03/09 01:17:52;;;;;;;;;;;;;;;;;;5109280;27;19946;-73
2022/03/09 01:20:18;;;;;;;;;;;;;;;;;;5108068;27;20664;-73
2022/03/09 01:22:44;;;;;;;;;;;;;;;;;;5106594;28;19966;-73
2022/03/09 01:25:11;;;;;;;;;;;;;;;;;;5107426;27;19970;-73
2022/03/09 01:27:37;;;;;;;;;;;;;;;;;;5109266;27;20368;-73
2022/03/09 01:30:03;;;;;;;;;;;;;;;;;;5107261;27;19959;-73
2022/03/09 01:32:29;;;;;;;;;;;;;;;;;;5114655;27;20378;-72
2022/03/09 01:34:55;;;;;;;;;;;;;;;;;;5114326;27;19966;-73
2022/03/09 01:37:22;;;;;;;;;;;;;;;;;;5116179;27;20648;-73
2022/03/09 01:39:48;;;;;;;;;;;;;;;;;;5109112;28;19967;-72
2022/03/09 01:42:14;;;;;;;;;;;;;;;;;;5107962;27;19947;-73
2022/03/09 01:44:40;;;;;;;;;;;;;;;;;;5111077;27;20458;-73
2022/03/09 01:47:06;;;;;;;;;;;;;;;;;;5108485;27;19951;-73
2022/03/09 01:49:33;;;;;;;;;;;;;;;;;;5110454;27;19928;-73
2022/03/09 01:52:00;;;;;;;;;;;;;;;;;;5091489;27;20395;-72
2022/03/09 01:54:26;;;;;;;;;;;;;;;;;;5102677;27;19958;-73
2022/03/09 01:56:52;;;;;;;;;;;;;;;;;;5085082;28;19966;-73
2022/03/09 01:59:18;;;;;;;;;;;;;;;;;;5108451;27;19956;-73
2022/03/09 02:01:45;;;;;;;;;;;;;;;;;;5109534;27;20290;-73
2022/03/09 02:04:11;;;;;;;;;;;;;;;;;;5112795;27;20390;-72
2022/03/09 02:06:38;;;;;;;;;;;;;;;;;;5091379;28;19951;-73
2022/03/09 02:11:49;;;;;;;;;;;;;;;;;;5107109;28;19952;-72
2022/03/09 02:14:16;;;;;;;;;;;;;;;;;;5104705;27;19963;-72
2022/03/09 02:16:42;;;;;;;;;;;;;;;;;;5106065;28;19963;-73
2022/03/09 02:19:08;;;;;;;;;;;;;;;;;;5107045;28;20412;-72
2022/03/09 02:21:34;;;;;;;;;;;;;;;;;;5090090;28;19961;-72
2022/03/09 02:24:01;;;;;;;;;;;;;;;;;;5088505;28;19997;-72
2022/03/09 02:26:27;;;;;;;;;;;;;;;;;;5107135;27;19959;-72
2022/03/09 02:28:53;;;;;;;;;;;;;;;;;;5107453;28;19969;-72
2022/03/09 02:31:19;;;;;;;;;;;;;;;;;;5090915;28;20388;-72
2022/03/09 02:33:45;;;;;;;;;;;;;;;;;;5112448;27;19955;-72
2022/03/09 02:36:12;;;;;;;;;;;;;;;;;;5105472;28;19926;-72
2022/03/09 02:38:38;;;;;;;;;;;;;;;;;;5110953;27;19963;-73
2022/03/09 02:41:04;;;;;;;;;;;;;;;;;;5109103;27;19954;-72
2022/03/09 02:43:30;;;;;;;;;;;;;;;;;;5109112;28;19955;-72
2022/03/09 02:45:56;;;;;;;;;;;;;;;;;;5107958;27;20028;-72
2022/03/09 02:48:23;;;;;;;;;;;;;;;;;;5103667;28;19989;-71
2022/03/09 02:50:49;;;;;;;;;;;;;;;;;;5108380;28;19964;-72
2022/03/09 02:53:15;;;;;;;;;;;;;;;;;;5094137;27;20404;-72
2022/03/09 02:55:41;;;;;;;;;;;;;;;;;;5108251;27;19958;-71
2022/03/09 02:58:07;;;;;;;;;;;;;;;;;;5107344;27;19928;-72
2022/03/09 03:00:34;;;;;;;;;;;;;;;;;;5103234;28;20024;-71
2022/03/09 03:03:00;;;;;;;;;;;;;;;;;;5071574;28;20382;-71
2022/03/09 03:05:26;;;;;;;;;;;;;;;;;;5103736;28;19975;-71
2022/03/09 03:07:53;;;;;;;;;;;;;;;;;;5106017;27;20076;-72
2022/03/09 03:10:20;;;;;;;;;;;;;;;;;;5104766;27;19989;-71
2022/03/09 03:12:46;;;;;;;;;;;;;;;;;;5115044;27;19951;-72
2022/03/09 03:15:12;;;;;;;;;;;;;;;;;;5109888;27;19955;-72
2022/03/09 03:17:38;;;;;;;;;;;;;;;;;;5106111;27;20394;-71
2022/03/09 03:20:04;;;;;;;;;;;;;;;;;;5105011;27;19964;-71
2022/03/09 03:22:30;;;;;;;;;;;;;;;;;;5088495;28;19959;-72
2022/03/09 03:24:57;;;;;;;;;;;;;;;;;;5085921;28;20017;-71
2022/03/09 03:27:23;;;;;;;;;;;;;;;;;;5105959;27;19963;-71
2022/03/09 03:29:49;;;;;;;;;;;;;;;;;;5105890;27;19962;-71
2022/03/09 03:32:15;;;;;;;;;;;;;;;;;;5110228;27;20412;-71
2022/03/09 03:34:41;;;;;;;;;;;;;;;;;;5098994;27;19959;-71
2022/03/09 03:37:08;;;;;;;;;;;;;;;;;;5087134;28;20280;-71
2022/03/09 03:39:34;;;;;;;;;;;;;;;;;;5106976;28;19990;-71
2022/03/09 03:42:00;;;;;;;;;;;;;;;;;;5087370;28;20499;-71
2022/03/09 03:44:27;;;;;;;;;;;;;;;;;;5088469;28;19963;-71
2022/03/09 03:46:53;;;;;;;;;;;;;;;;;;5085619;27;19960;-71
2022/03/09 03:49:19;;;;;;;;;;;;;;;;;;5090516;28;19947;-72
2022/03/09 03:51:45;;;;;;;;;;;;;;;;;;5106316;28;19974;-72
2022/03/09 03:54:11;;;;;;;;;;;;;;;;;;5106618;28;20338;-72
2022/03/09 03:56:38;;;;;;;;;;;;;;;;;;5103885;28;20541;-71
2022/03/09 03:59:04;;;;;;;;;;;;;;;;;;5104853;28;19989;-71
2022/03/09 04:01:30;;;;;;;;;;;;;;;;;;5089046;27;19955;-71
2022/03/09 04:03:56;;;;;;;;;;;;;;;;;;5106723;27;20011;-71
2022/03/09 04:06:22;;;;;;;;;;;;;;;;;;5107277;28;19955;-71
2022/03/09 04:08:49;;;;;;;;;;;;;;;;;;5107052;28;19924;-71
2022/03/09 04:11:15;;;;;;;;;;;;;;;;;;5107190;27;19958;-71
2022/03/09 04:13:42;;;;;;;;;;;;;;;;;;5107094;28;19959;-71
2022/03/09 04:16:09;;;;;;;;;;;;;;;;;;5087347;28;20015;-71
2022/03/09 04:18:36;;;;;;;;;;;;;;;;;;5106705;28;19922;-73
2022/03/09 04:21:05;;;;;;;;;;;;;;;;;;5083332;28;20295;-71
2022/03/09 04:23:32;;;;;;;;;;;;;;;;;;5104257;27;19970;-72
2022/03/09 04:25:58;;;;;;;;;;;;;;;;;;5102260;28;19955;-72
2022/03/09 04:28:24;;;;;;;;;;;;;;;;;;5104542;28;19955;-72
2022/03/09 04:30:50;;;;;;;;;;;;;;;;;;5103634;27;19924;-75
2022/03/09 04:33:17;;;;;;;;;;;;;;;;;;5105092;28;19977;-72
2022/03/09 04:35:43;;;;;;;;;;;;;;;;;;5079041;28;20390;-72
2022/03/09 04:38:09;;;;;;;;;;;;;;;;;;5102841;28;19951;-72
2022/03/09 04:40:35;;;;;;;;;;;;;;;;;;5102836;28;19966;-72
2022/03/09 04:43:01;;;;;;;;;;;;;;;;;;5105885;28;20356;-72
2022/03/09 04:45:28;;;;;;;;;;;;;;;;;;5099929;28;19974;-73
2022/03/09 04:47:54;;;;;;;;;;;;;;;;;;5104687;28;19963;-73
2022/03/09 04:50:20;;;;;;;;;;;;;;;;;;5104696;28;19952;-73
2022/03/09 04:52:46;;;;;;;;;;;;;;;;;;5103860;28;19969;-72
2022/03/09 04:55:12;;;;;;;;;;;;;;;;;;5105144;28;19920;-73
2022/03/09 04:57:38;;;;;;;;;;;;;;;;;;5087118;28;19951;-72
2022/03/09 05:00:05;;;;;;;;;;;;;;;;;;5085015;28;20355;-72
2022/03/09 05:02:31;;;;;;;;;;;;;;;;;;5105939;28;19955;-72
2022/03/09 05:04:57;;;;;;;;;;;;;;;;;;5085449;28;20012;-72
2022/03/09 05:07:23;;;;;;;;;;;;;;;;;;5103857;28;19958;-71
2022/03/09 05:09:50;;;;;;;;;;;;;;;;;;5104698;28;20371;-71
2022/03/09 05:12:16;;;;;;;;;;;;;;;;;;5085493;28;19951;-72
2022/03/09 05:14:42;;;;;;;;;;;;;;;;;;5100945;28;19921;-72
2022/03/09 05:17:08;;;;;;;;;;;;;;;;;;5102459;28;19966;-72
2022/03/09 05:19:34;;;;;;;;;;;;;;;;;;5103108;28;19985;-72
2022/03/09 05:22:01;;;;;;;;;;;;;;;;;;5094560;28;19955;-71
2022/03/09 05:24:27;;;;;;;;;;;;;;;;;;5103722;28;19962;-72
2022/03/09 05:26:53;;;;;;;;;;;;;;;;;;5100507;28;19975;-72
2022/03/09 05:29:19;;;;;;;;;;;;;;;;;;5104026;28;19939;-72
2022/03/09 05:31:45;;;;;;;;;;;;;;;;;;5098960;28;19966;-71
2022/03/09 05:34:14;;;;;;;;;;;;;;;;;;5101806;28;20201;-71
2022/03/09 05:36:40;;;;;;;;;;;;;;;;;;5104150;28;19955;-71
2022/03/09 05:39:06;;;;;;;;;;;;;;;;;;5106198;28;20481;-71
2022/03/09 05:41:33;;;;;;;;;;;;;;;;;;5102016;28;20446;-71
2022/03/09 05:43:59;;;;;;;;;;;;;;;;;;5103955;28;19971;-71
2022/03/09 05:46:25;;;;;;;;;;;;;;;;;;5104043;28;19947;-71
2022/03/09 05:48:52;;;;;;;;;;;;;;;;;;5112417;27;19955;-71
2022/03/09 05:51:18;;;;;;;;;;;;;;;;;;5106593;27;19951;-71
2022/03/09 05:53:44;;;;;;;;;;;;;;;;;;5108236;28;19916;-71
2022/03/09 05:56:10;;;;;;;;;;;;;;;;;;5104552;27;20060;-70
2022/03/09 05:58:37;;;;;;;;;;;;;;;;;;5108149;28;20438;-70
2022/03/09 06:01:03;;;;;;;;;;;;;;;;;;5107750;28;20384;-71
2022/03/09 06:03:29;;;;;;;;;;;;;;;;;;5105346;28;19959;-71
2022/03/09 06:05:55;;;;;;;;;;;;;;;;;;5106652;28;19962;-71
2022/03/09 06:08:21;;;;;;;;;;;;;;;;;;5096356;28;19959;-71
2022/03/09 06:10:48;;;;;;;;;;;;;;;;;;5108889;28;19986;-71
2022/03/09 06:13:14;;;;;;;;;;;;;;;;;;5108291;28;19951;-71
2022/03/09 06:15:40;;;;;;;;;;;;;;;;;;5108933;27;19978;-71
2022/03/09 06:18:06;;;;;;;;;;;;;;;;;;5107502;28;19959;-71
2022/03/09 06:20:32;;;;;;;;;;;;;;;;;;5106594;28;19947;-72
2022/03/09 06:22:59;;;;;;;;;;;;;;;;;;5107868;27;19987;-72
2022/03/09 06:25:25;;;;;;;;;;;;;;;;;;5108845;28;19970;-72
2022/03/09 06:27:51;;;;;;;;;;;;;;;;;;5113113;27;19951;-72
2022/03/09 06:30:17;;;;;;;;;;;;;;;;;;5108134;28;19958;-72
2022/03/09 06:32:43;;;;;;;;;;;;;;;;;;5109924;27;19950;-72
2022/03/09 06:35:10;;;;;;;;;;;;;;;;;;5106299;28;20012;-72
2022/03/09 06:37:36;;;;;;;;;;;;;;;;;;5098895;27;19965;-71
2022/03/09 06:40:02;;;;;;;;;;;;;;;;;;5103961;27;19963;-72
2022/03/09 06:42:29;;;;;;;;;;;;;;;;;;5106862;28;19916;-71
2022/03/09 06:44:55;;;;;;;;;;;;;;;;;;5090456;28;20456;-72
2022/03/09 06:47:21;;;;;;;;;;;;;;;;;;5062563;28;20004;-72
2022/03/09 06:49:48;;;;;;;;;;;;;;;;;;5106242;28;19965;-72
2022/03/09 06:52:14;;;;;;;;;;;;;;;;;;5109202;27;20745;-72
2022/03/09 06:54:40;;;;;;;;;;;;;;;;;;5109091;27;19920;-71
2022/03/09 06:57:07;;;;;;;;;;;;;;;;;;5104210;28;19983;-72
2022/03/09 06:59:33;;;;;;;;;;;;;;;;;;5091180;28;19961;-72
2022/03/09 07:02:19;;;;;;;;;;;;;;;;;;5108136;28;20319;-72
2022/03/09 07:04:50;;;;;;;;;;;;;;;;;;5077038;28;19923;-72
2022/03/09 07:07:36;;;;;;;;;;;;;;;;;;5107447;28;19935;-71
2022/03/09 07:10:22;;;;;;;;;;;;;;;;;;5107393;27;19938;-72
2022/03/09 07:13:08;;;;;;;;;;;;;;;;;;5108166;28;19912;-71
2022/03/09 07:15:55;;;;;;;;;;;;;;;;;;5090927;28;19927;-73
2022/03/09 07:18:24;;;;;;;;;;;;;;;;;;5088307;28;20314;-73
2022/03/09 07:21:10;;;;;;;;;;;;;;;;;;5104781;28;19911;-72
2022/03/09 07:23:57;;;;;;;;;;;;;;;;;;5105375;28;19908;-73
2022/03/09 07:26:40;;;;;;;;;;;;;;;;;;5083907;28;19924;-73
2022/03/09 07:29:12;;;;;;;;;;;;;;;;;;5103926;28;19973;-73
2022/03/09 07:31:38;;;;;;;;;;;;;;;;;;5101562;27;20031;-72
2022/03/09 07:34:04;;;;;;;;;;;;;;;;;;5105788;28;20369;-73
2022/03/09 07:36:31;;;;;;;;;;;;;;;;;;5088384;28;20004;-73
2022/03/09 07:38:57;;;;;;;;;;;;;;;;;;5088348;28;19920;-72
2022/03/09 07:41:23;;;;;;;;;;;;;;;;;;5106318;28;19954;-73
2022/03/09 07:43:49;;;;;;;;;;;;;;;;;;5094218;28;20212;-73
2022/03/09 07:46:15;;;;;;;;;;;;;;;;;;5106945;28;19955;-72
2022/03/09 07:48:42;;;;;;;;;;;;;;;;;;5101635;28;19959;-71
2022/03/09 07:51:08;;;;;;;;;;;;;;;;;;5105821;28;20663;-72
2022/03/09 07:53:34;;;;;;;;;;;;;;;;;;5107270;27;19912;-71
2022/03/09 07:56:00;;;;;;;;;;;;;;;;;;5104755;28;20367;-72
2022/03/09 07:58:47;;;;;;;;;;;;;;;;;;5102116;27;19919;-72
2022/03/09 08:01:14;;;;;;;;;;;;;;;;;;5070906;28;19920;-72
2022/03/09 08:04:00;;;;;;;;;;;;;;;;;;5105049;28;19948;-72
2022/03/09 08:06:33;;;;;;;;;;;;;;;;;;5065713;28;19916;-72
2022/03/09 08:09:01;;;;;;;;;;;;;;;;;;5088250;28;19952;-72
2022/03/09 08:11:38;;;;;;;;;;;;;;;;;;5088204;28;19919;-72
2022/03/09 08:14:22;;;;;;;;;;;;;;;;;;5070699;28;19955;-72
2022/03/09 08:17:00;;;;;;;;;;;;;;;;;;5089094;28;19923;-72
2022/03/09 08:19:46;;;;;;;;;;;;;;;;;;5104166;28;19913;-72
2022/03/09 08:22:29;;;;;;;;;;;;;;;;;;5100342;27;19973;-72
2022/03/09 08:25:15;;;;;;;;;;;;;;;;;;5100332;28;19960;-72
2022/03/09 08:28:00;;;;;;;;;;;;;;;;;;5087870;28;19961;-72
2022/03/09 08:30:46;;;;;;;;;;;;;;;;;;5088483;28;19919;-72
2022/03/09 08:33:33;;;;;;;;;;;;;;;;;;5107082;28;19916;-72
2022/03/09 08:36:19;;;;;;;;;;;;;;;;;;5079151;28;20453;-72
2022/03/09 08:39:03;;;;;;;;;;;;;;;;;;5029269;28;19913;-72
2022/03/09 08:41:49;;;;;;;;;;;;;;;;;;5048682;27;19935;-72
2022/03/09 08:44:35;;;;;;;;;;;;;;;;;;5017767;28;19920;-72
2022/03/09 08:47:21;;;;;;;;;;;;;;;;;;5104875;28;19912;-72
2022/03/09 08:50:07;;;;;;;;;;;;;;;;;;5036035;28;19916;-72
2022/03/09 08:52:54;;;;;;;;;;;;;;;;;;5102534;28;19915;-72
2022/03/09 08:55:40;;;;;;;;;;;;;;;;;;5079170;28;19912;-72
2022/03/09 08:58:26;;;;;;;;;;;;;;;;;;5075640;28;19999;-71
2022/03/09 09:01:13;;;;;;;;;;;;;;;;;;5083659;28;20355;-72
2022/03/09 09:03:59;;;;;;;;;;;;;;;;;;5084062;28;19908;-72
2022/03/09 09:06:45;;;;;;;;;;;;;;;;;;5083388;28;19921;-72
2022/03/09 09:09:32;;;;;;;;;;;;;;;;;;5089463;28;19935;-72
2022/03/09 09:12:19;;;;;;;;;;;;;;;;;;5103130;28;19908;-71
2022/03/09 09:15:05;;;;;;;;;;;;;;;;;;5075667;28;20548;-72
2022/03/09 09:17:51;;;;;;;;;;;;;;;;;;5101292;28;19907;-72
2022/03/09 09:20:37;;;;;;;;;;;;;;;;;;5084662;28;19931;-72
2022/03/09 09:23:23;;;;;;;;;;;;;;;;;;5096136;28;19915;-72
2022/03/09 09:26:09;;;;;;;;;;;;;;;;;;5091509;28;19931;-72
2022/03/09 09:28:55;;;;;;;;;;;;;;;;;;5108651;28;20283;-72
2022/03/09 09:31:42;;;;;;;;;;;;;;;;;;5109742;28;19908;-72
2022/03/09 09:34:28;;;;;;;;;;;;;;;;;;5105206;28;19916;-72
2022/03/09 09:37:14;;;;;;;;;;;;;;;;;;5103156;28;19912;-73
2022/03/09 09:40:00;;;;;;;;;;;;;;;;;;5106749;27;20321;-72
2022/03/09 09:42:47;;;;;;;;;;;;;;;;;;5088791;28;19920;-72
2022/03/09 09:45:33;;;;;;;;;;;;;;;;;;5100746;28;20283;-72
2022/03/09 09:48:20;;;;;;;;;;;;;;;;;;5105472;28;20570;-72
2022/03/09 09:51:06;;;;;;;;;;;;;;;;;;5107200;28;19912;-72
2022/03/09 09:53:52;;;;;;;;;;;;;;;;;;5114557;27;19911;-72
2022/03/09 09:56:38;;;;;;;;;;;;;;;;;;5087539;28;19916;-72
2022/03/09 09:59:24;;;;;;;;;;;;;;;;;;5109574;28;19915;-73
2022/03/09 10:02:10;;;;;;;;;;;;;;;;;;5110789;28;20321;-72
2022/03/09 10:04:57;;;;;;;;;;;;;;;;;;5112199;27;19912;-72
2022/03/09 10:07:43;;;;;;;;;;;;;;;;;;5093285;28;19907;-72
2022/03/09 10:10:29;;;;;;;;;;;;;;;;;;5089435;28;19923;-72
2022/03/09 10:13:15;;;;;;;;;;;;;;;;;;5109058;27;19996;-72
2022/03/09 10:16:01;;;;;;;;;;;;;;;;;;5109701;27;20318;-72
2022/03/09 10:18:48;;;;;;;;;;;;;;;;;;5112688;27;19912;-73
2022/03/09 10:21:40;;;;;;;;;;;;;;;;;;5095123;28;19912;-73
2022/03/09 10:24:26;;;;;;;;;;;;;;;;;;5108213;28;19920;-73
2022/03/09 10:27:12;;;;;;;;;;;;;;;;;;5109321;28;19928;-71
2022/03/09 10:29:59;;;;;;;;;;;;;;;;;;5091217;27;19934;-71
2022/03/09 10:32:46;;;;;;;;;;;;;;;;;;5105802;28;19918;-72
2022/03/09 10:35:32;;;;;;;;;;;;;;;;;;5092781;28;19950;-72
2022/03/09 10:38:19;;;;;;;;;;;;;;;;;;5109157;27;21243;-72
2022/03/09 10:41:09;;;;;;;;;;;;;;;;;;5110423;27;19931;-71
2022/03/09 10:43:55;;;;;;;;;;;;;;;;;;5086131;28;19915;-71
2022/03/09 10:46:41;;;;;;;;;;;;;;;;;;5107341;28;20804;-72
2022/03/09 10:49:27;;;;;;;;;;;;;;;;;;5096067;28;19912;-71
2022/03/09 10:52:13;;;;;;;;;;;;;;;;;;5100581;28;19907;-72
2022/03/09 10:54:59;;;;;;;;;;;;;;;;;;5087605;28;19923;-72
2022/03/09 10:57:45;;;;;;;;;;;;;;;;;;5101589;27;19911;-71
2022/03/09 11:00:31;;;;;;;;;;;;;;;;;;5106937;28;20379;-71
2022/03/09 11:03:18;;;;;;;;;;;;;;;;;;5106614;28;19911;-71
2022/03/09 11:06:06;;;;;;;;;;;;;;;;;;5096422;28;19922;-71
2022/03/09 11:08:52;;;;;;;;;;;;;;;;;;5089316;28;19912;-71
2022/03/09 11:11:38;;;;;;;;;;;;;;;;;;5106453;28;19922;-72
2022/03/09 11:14:29;;;;;;;;;;;;;;;;;;5106441;28;19923;-73
2022/03/09 11:17:16;;;;;;;;;;;;;;;;;;5088017;28;19912;-72
2022/03/09 11:20:02;;;;;;;;;;;;;;;;;;5089952;28;19911;-72
2022/03/09 11:22:48;;;;;;;;;;;;;;;;;;5106216;27;19950;-72
2022/03/09 11:25:34;;;;;;;;;;;;;;;;;;5105186;28;19920;-71
2022/03/09 11:28:21;;;;;;;;;;;;;;;;;;5106213;27;19915;-72
2022/03/09 11:31:07;;;;;;;;;;;;;;;;;;5091166;28;19912;-72
2022/03/09 11:33:53;;;;;;;;;;;;;;;;;;5085964;28;20558;-71
2022/03/09 11:36:39;;;;;;;;;;;;;;;;;;5104091;28;19943;-72
2022/03/09 11:39:25;;;;;;;;;;;;;;;;;;5107449;28;19919;-72
2022/03/09 11:42:12;;;;;;;;;;;;;;;;;;5102121;28;19912;-72
2022/03/09 11:44:58;;;;;;;;;;;;;;;;;;5096445;28;20478;-72
2022/03/09 11:47:44;;;;;;;;;;;;;;;;;;5107613;28;19933;-72
2022/03/09 11:50:30;;;;;;;;;;;;;;;;;;5103704;28;19914;-72
2022/03/09 11:53:16;;;;;;;;;;;;;;;;;;5108084;28;19908;-72
2022/03/09 11:56:02;;;;;;;;;;;;;;;;;;5105837;28;19916;-72
2022/03/09 11:58:28;;;;;;;;;;;;;;;;;;5083380;28;20476;-73
2022/03/09 12:00:55;;;;;;;;;;;;;;;;;;5105424;28;19967;-73
2022/03/09 12:03:21;;;;;;;;;;;;;;;;;;5105064;28;20031;-73
2022/03/09 12:05:47;;;;;;;;;;;;;;;;;;5105287;28;19963;-72
2022/03/09 12:08:16;;;;;;;;;;;;;;;;;;5114765;27;19923;-72
2022/03/09 12:10:42;;;;;;;;;;;;;;;;;;5085503;28;19955;-72
2022/03/09 12:13:08;;;;;;;;;;;;;;;;;;5104960;28;19951;-74
2022/03/09 12:15:36;;;;;;;;;;;;;;;;;;5106684;27;20417;-74
2022/03/09 12:18:03;;;;;;;;;;;;;;;;;;5106790;28;19963;-73
2022/03/09 12:20:29;;;;;;;;;;;;;;;;;;5103737;28;19955;-74
2022/03/09 12:22:55;;;;;;;;;;;;;;;;;;5107563;27;19950;-74
2022/03/09 12:25:22;;;;;;;;;;;;;;;;;;5100303;28;19939;-74
2022/03/09 12:27:49;;;;;;;;;;;;;;;;;;5087378;28;19923;-75
2022/03/09 12:30:19;;;;;;;;;;;;;;;;;;5085910;28;19931;-74
2022/03/09 12:32:50;;;;;;;;;;;;;;;;;;5086508;28;19920;-74
2022/03/09 12:35:25;;;;;;;;;;;;;;;;;;5087690;28;19947;-74
2022/03/09 12:37:53;;;;;;;;;;;;;;;;;;5068821;28;20392;-74
2022/03/09 12:40:38;;;;;;;;;;;;;;;;;;5082639;28;20410;-74
2022/03/09 12:43:26;;;;;;;;;;;;;;;;;;5106425;28;19912;-74
2022/03/09 12:46:12;;;;;;;;;;;;;;;;;;5104087;27;19931;-74
2022/03/09 12:48:53;;;;;;;;;;;;;;;;;;5071664;28;19931;-74
2022/03/09 12:51:22;;;;;;;;;;;;;;;;;;5080283;28;19920;-74
2022/03/09 12:53:49;;;;;;;;;;;;;;;;;;5105829;28;19923;-74
2022/03/09 12:56:35;;;;;;;;;;;;;;;;;;5097995;28;19916;-74
2022/03/09 12:59:04;;;;;;;;;;;;;;;;;;5079296;28;19912;-74
2022/03/09 13:01:50;;;;;;;;;;;;;;;;;;5103224;28;20315;-74
2022/03/09 13:04:36;;;;;;;;;;;;;;;;;;5083842;28;19912;-74
2022/03/09 13:07:22;;;;;;;;;;;;;;;;;;5104862;28;19984;-73
2022/03/09 13:10:08;;;;;;;;;;;;;;;;;;5100740;28;19920;-74
2022/03/09 13:12:56;;;;;;;;;;;;;;;;;;5104844;28;19908;-74
2022/03/09 13:15:42;;;;;;;;;;;;;;;;;;5104407;28;19912;-74
2022/03/09 13:18:28;;;;;;;;;;;;;;;;;;5110249;28;19915;-74
2022/03/09 13:21:15;;;;;;;;;;;;;;;;;;5103218;28;19908;-74
2022/03/09 13:24:01;;;;;;;;;;;;;;;;;;5090034;28;19923;-74
2022/03/09 13:26:47;;;;;;;;;;;;;;;;;;5096700;28;19920;-74
2022/03/09 13:29:33;;;;;;;;;;;;;;;;;;5105299;28;19932;-74
2022/03/09 13:32:19;;;;;;;;;;;;;;;;;;5102056;28;19915;-74
2022/03/09 13:35:05;;;;;;;;;;;;;;;;;;5096174;28;20352;-74
2022/03/09 13:37:52;;;;;;;;;;;;;;;;;;5103218;28;19912;-74
2022/03/09 13:40:38;;;;;;;;;;;;;;;;;;5093192;28;20383;-74
2022/03/09 13:43:24;;;;;;;;;;;;;;;;;;5082764;28;19915;-74
2022/03/09 13:46:11;;;;;;;;;;;;;;;;;;5106572;28;19920;-74
2022/03/09 13:48:57;;;;;;;;;;;;;;;;;;5106253;28;20291;-74
2022/03/09 13:51:43;;;;;;;;;;;;;;;;;;5108142;28;19954;-74
2022/03/09 13:54:29;;;;;;;;;;;;;;;;;;5097118;28;19916;-74
2022/03/09 13:57:15;;;;;;;;;;;;;;;;;;5087827;28;19908;-74
2022/03/09 14:00:01;;;;;;;;;;;;;;;;;;5084164;28;19919;-74
2022/03/09 14:02:48;;;;;;;;;;;;;;;;;;5103804;28;19916;-74
2022/03/09 14:05:34;;;;;;;;;;;;;;;;;;5098094;28;20402;-74
2022/03/09 14:08:20;;;;;;;;;;;;;;;;;;5102128;28;19931;-74
2022/03/09 14:10:47;;;;;;;;;;;;;;;;;;5105314;28;19955;-73
2022/03/09 14:13:13;;;;;;;;;;;;;;;;;;5108890;28;19963;-74
2022/03/09 14:15:39;;;;;;;;;;;;;;;;;;5110341;27;19993;-74
2022/03/09 14:18:06;;;;;;;;;;;;;;;;;;5085881;28;20033;-74
2022/03/09 14:20:32;;;;;;;;;;;;;;;;;;5107988;28;19951;-74
2022/03/09 14:22:58;;;;;;;;;;;;;;;;;;5088240;28;19943;-74
2022/03/09 14:25:24;;;;;;;;;;;;;;;;;;5084658;28;20395;-74
2022/03/09 14:27:53;;;;;;;;;;;;;;;;;;5104523;28;20356;-74
2022/03/09 14:30:19;;;;;;;;;;;;;;;;;;5110052;27;20602;-74
2022/03/09 14:32:45;;;;;;;;;;;;;;;;;;5089147;28;19919;-74
2022/03/09 14:35:14;;;;;;;;;;;;;;;;;;5113700;27;19936;-74
2022/03/09 14:37:42;;;;;;;;;;;;;;;;;;5075226;28;19916;-74
2022/03/09 14:40:09;;;;;;;;;;;;;;;;;;5090880;28;19928;-74
2022/03/09 14:42:39;;;;;;;;;;;;;;;;;;5074689;28;19916;-74
2022/03/09 14:45:05;;;;;;;;;;;;;;;;;;5103655;27;19927;-74
2022/03/09 14:47:42;;;;;;;;;;;;;;;;;;5090612;28;19920;-74
2022/03/09 14:50:10;;;;;;;;;;;;;;;;;;5089833;28;19927;-74
2022/03/09 14:52:51;;;;;;;;;;;;;;;;;;5075686;28;19916;-74
2022/03/09 14:55:30;;;;;;;;;;;;;;;;;;5090072;28;19931;-74
2022/03/09 14:58:16;;;;;;;;;;;;;;;;;;5104993;28;20303;-74
2022/03/09 15:01:00;;;;;;;;;;;;;;;;;;5071768;28;19920;-74
2022/03/09 15:03:37;;;;;;;;;;;;;;;;;;5074419;28;19959;-74
2022/03/09 15:06:23;;;;;;;;;;;;;;;;;;5107193;28;20432;-74
2022/03/09 15:09:09;;;;;;;;;;;;;;;;;;5103289;28;19922;-73
2022/03/09 15:11:56;;;;;;;;;;;;;;;;;;5106073;28;19916;-72
2022/03/09 15:14:42;;;;;;;;;;;;;;;;;;5098679;27;20264;-74
2022/03/09 15:17:28;;;;;;;;;;;;;;;;;;5040923;28;19931;-74
2022/03/09 15:20:14;;;;;;;;;;;;;;;;;;5037945;28;19908;-74
2022/03/09 15:23:00;;;;;;;;;;;;;;;;;;5012249;28;19908;-74
2022/03/09 15:25:45;;;;;;;;;;;;;;;;;;4996981;28;19921;-74
2022/03/09 15:28:31;;;;;;;;;;;;;;;;;;5073091;28;19918;-74
2022/03/09 15:31:17;;;;;;;;;;;;;;;;;;5073641;28;19916;-74
2022/03/09 15:34:03;;;;;;;;;;;;;;;;;;5086153;27;19916;-74
2022/03/09 15:36:47;;;;;;;;;;;;;;;;;;5041664;28;20042;-74
2022/03/09 15:39:34;;;;;;;;;;;;;;;;;;5103395;27;19915;-74
2022/03/09 15:42:20;;;;;;;;;;;;;;;;;;5102425;27;20331;-74
2022/03/09 15:45:07;;;;;;;;;;;;;;;;;;5100909;28;19915;-74
2022/03/09 15:47:53;;;;;;;;;;;;;;;;;;5066601;28;20344;-74
2022/03/09 15:50:39;;;;;;;;;;;;;;;;;;5070699;28;19916;-73
2022/03/09 15:53:26;;;;;;;;;;;;;;;;;;5099133;27;19927;-74
2022/03/09 15:56:12;;;;;;;;;;;;;;;;;;5075039;27;19931;-72
2022/03/09 15:58:58;;;;;;;;;;;;;;;;;;5102183;28;19917;-73
2022/03/09 16:01:44;;;;;;;;;;;;;;;;;;5100290;28;19912;-72
2022/03/09 16:04:31;;;;;;;;;;;;;;;;;;5022265;28;20265;-73
2022/03/09 16:07:17;;;;;;;;;;;;;;;;;;5059543;27;19919;-73
2022/03/09 16:10:04;;;;;;;;;;;;;;;;;;5078404;28;20375;-75
2022/03/09 16:12:50;;;;;;;;;;;;;;;;;;5106675;27;19912;-74
2022/03/09 16:15:30;;;;;;;;;;;;;;;;;;5089742;28;19911;-74
2022/03/09 16:18:17;;;;;;;;;;;;;;;;;;5103946;28;19919;-74
2022/03/09 16:21:03;;;;;;;;;;;;;;;;;;5105720;28;19930;-74
2022/03/09 16:23:49;;;;;;;;;;;;;;;;;;5101820;28;20295;-74
2022/03/09 16:26:36;;;;;;;;;;;;;;;;;;5105735;28;19931;-74
2022/03/09 16:29:22;;;;;;;;;;;;;;;;;;5079118;28;19915;-74
2022/03/09 16:32:08;;;;;;;;;;;;;;;;;;5099053;28;20355;-74
2022/03/09 16:34:55;;;;;;;;;;;;;;;;;;5089070;28;19916;-74
2022/03/09 16:37:41;;;;;;;;;;;;;;;;;;5102204;28;19912;-74
2022/03/09 16:40:27;;;;;;;;;;;;;;;;;;5085106;28;19931;-74
2022/03/09 16:43:13;;;;;;;;;;;;;;;;;;5103565;28;19912;-73
2022/03/09 16:45:59;;;;;;;;;;;;;;;;;;5104645;28;19920;-74
2022/03/09 16:48:45;;;;;;;;;;;;;;;;;;5091697;28;20303;-73
2022/03/09 16:51:32;;;;;;;;;;;;;;;;;;5101614;28;19908;-74
2022/03/09 16:54:18;;;;;;;;;;;;;;;;;;5080531;28;19916;-74
2022/03/09 16:57:04;;;;;;;;;;;;;;;;;;5104279;28;20007;-73
2022/03/09 16:59:50;;;;;;;;;;;;;;;;;;5105913;28;19912;-73
2022/03/09 17:02:36;;;;;;;;;;;;;;;;;;5087527;28;19912;-73
2022/03/09 17:05:23;;;;;;;;;;;;;;;;;;5098802;28;19924;-74
2022/03/09 17:08:09;;;;;;;;;;;;;;;;;;5102055;28;20356;-74
2022/03/09 17:10:56;;;;;;;;;;;;;;;;;;5102117;28;19923;-73
2022/03/09 17:13:42;;;;;;;;;;;;;;;;;;5089258;28;19941;-73
2022/03/09 17:16:28;;;;;;;;;;;;;;;;;;5107181;28;19934;-73
2022/03/09 17:19:17;;;;;;;;;;;;;;;;;;5078839;28;19915;-74
2022/03/09 17:22:03;;;;;;;;;;;;;;;;;;5044463;28;19926;-74
2022/03/09 17:24:49;;;;;;;;;;;;;;;;;;5053395;28;19907;-73
2022/03/09 17:27:35;;;;;;;;;;;;;;;;;;5021207;28;19907;-73
2022/03/09 17:30:20;;;;;;;;;;;;;;;;;;4991825;28;19912;-74
2022/03/09 17:33:06;;;;;;;;;;;;;;;;;;5007622;28;19912;-74
2022/03/09 17:35:52;;;;;;;;;;;;;;;;;;5021523;28;20296;-74
2022/03/09 17:38:39;;;;;;;;;;;;;;;;;;5024874;28;19908;-76
2022/03/09 17:41:26;;;;;;;;;;;;;;;;;;5006954;28;19912;-74
2022/03/09 17:44:12;;;;;;;;;;;;;;;;;;4914126;28;20280;-74